4XHHF LLMZ-LLRS
Flight info
| Callsign | 4XHHF |
|---|---|
| Flight time | 0h 41m |
| Altitude | 800 |
| Route | LSA CVFR |
| Aircraft | FDCT/L-S/C |
Departure
| Time | 2026-04-24 08:46 |
|---|---|
| Airport | Bar Yehuda Airfield (LLMZ) |
Arrival
| Time | 2026-04-24 09:28 |
|---|---|
| Airport | Rishon Lezion Airfield (LLRS) |
| Time | Latitude | Longitude | Altitude | Speed | Heading |
|---|---|---|---|---|---|
| 2026-04-24 08:43 | 31.32927 | 35.38819 | -1238 ft | 0 kts | 111° |
| 2026-04-24 08:45 | 31.32873 | 35.38853 | -1239 ft | 17 kts | 195° |
| 2026-04-24 08:46 | 31.32944 | 35.38881 | -1237 ft | 42 kts | 6° |
| 2026-04-24 08:46 | 31.33428 | 35.38962 | -1186 ft | 90 kts | 8° |
| 2026-04-24 08:46 | 31.34097 | 35.39076 | -979 ft | 100 kts | 8° |
| 2026-04-24 08:46 | 31.34769 | 35.39206 | -648 ft | 95 kts | 8° |
| 2026-04-24 08:47 | 31.35455 | 35.39339 | -424 ft | 102 kts | 8° |
| 2026-04-24 08:47 | 31.36189 | 35.39507 | -280 ft | 110 kts | 11° |
| 2026-04-24 08:47 | 31.36895 | 35.39701 | 30 ft | 101 kts | 12° |
| 2026-04-24 08:47 | 31.37580 | 35.39874 | 299 ft | 100 kts | 11° |
| 2026-04-24 08:48 | 31.38238 | 35.40044 | 641 ft | 94 kts | 12° |
| 2026-04-24 08:48 | 31.38879 | 35.40203 | 952 ft | 95 kts | 11° |
| 2026-04-24 08:48 | 31.39537 | 35.40374 | 1282 ft | 98 kts | 11° |
| 2026-04-24 08:48 | 31.40215 | 35.40554 | 1444 ft | 106 kts | 10° |
| 2026-04-24 08:49 | 31.40922 | 35.40809 | 417 ft | 137 kts | 6° |
| 2026-04-24 08:49 | 31.41940 | 35.40853 | -246 ft | 132 kts | 2° |
| 2026-04-24 08:49 | 31.42731 | 35.40808 | -54 ft | 98 kts | 358° |
| 2026-04-24 08:49 | 31.43397 | 35.40762 | -19 ft | 102 kts | 359° |
| 2026-04-24 08:50 | 31.44137 | 35.40718 | -82 ft | 107 kts | 358° |
| 2026-04-24 08:50 | 31.44849 | 35.40672 | -7 ft | 98 kts | 359° |
| 2026-04-24 08:50 | 31.45514 | 35.40622 | 87 ft | 94 kts | 358° |
| 2026-04-24 08:50 | 31.46180 | 35.40571 | 111 ft | 102 kts | 360° |
| 2026-04-24 08:51 | 31.46928 | 35.40528 | 37 ft | 111 kts | 359° |
| 2026-04-24 08:51 | 31.47677 | 35.40487 | 69 ft | 107 kts | 359° |
| 2026-04-24 08:51 | 31.48374 | 35.40437 | 202 ft | 99 kts | 358° |
| 2026-04-24 08:51 | 31.49073 | 35.40414 | 307 ft | 103 kts | 6° |
| 2026-04-24 08:52 | 31.49796 | 35.40461 | 472 ft | 107 kts | 4° |
| 2026-04-24 08:52 | 31.50542 | 35.40500 | 595 ft | 106 kts | 4° |
| 2026-04-24 08:52 | 31.51275 | 35.40560 | 727 ft | 104 kts | 6° |
| 2026-04-24 08:52 | 31.51936 | 35.40622 | 622 ft | 94 kts | 5° |
| 2026-04-24 08:53 | 31.52632 | 35.40662 | 512 ft | 103 kts | 5° |
| 2026-04-24 08:53 | 31.53336 | 35.40701 | 554 ft | 99 kts | 5° |
| 2026-04-24 08:53 | 31.54017 | 35.40736 | 638 ft | 97 kts | 5° |
| 2026-04-24 08:53 | 31.54687 | 35.40807 | 717 ft | 96 kts | 11° |
| 2026-04-24 08:54 | 31.55369 | 35.40939 | 752 ft | 101 kts | 11° |
| 2026-04-24 08:54 | 31.56085 | 35.41068 | 1008 ft | 104 kts | 6° |
| 2026-04-24 08:54 | 31.56694 | 35.41406 | 1369 ft | 104 kts | 41° |
| 2026-04-24 08:54 | 31.57231 | 35.42027 | 1420 ft | 111 kts | 36° |
| 2026-04-24 08:55 | 31.57991 | 35.42276 | 1320 ft | 112 kts | 4° |
| 2026-04-24 08:55 | 31.58779 | 35.42351 | 1242 ft | 117 kts | 18° |
| 2026-04-24 08:55 | 31.59574 | 35.42634 | 1167 ft | 119 kts | 14° |
| 2026-04-24 08:55 | 31.60385 | 35.42785 | 104 ft | 140 kts | 8° |
| 2026-04-24 08:56 | 31.61241 | 35.42902 | 162 ft | 102 kts | 8° |
| 2026-04-24 08:56 | 31.61937 | 35.42994 | 80 ft | 100 kts | 8° |
| 2026-04-24 08:56 | 31.62643 | 35.43090 | 56 ft | 102 kts | 9° |
| 2026-04-24 08:56 | 31.63317 | 35.43187 | 177 ft | 93 kts | 7° |
| 2026-04-24 08:57 | 31.63997 | 35.43287 | 291 ft | 104 kts | 9° |
| 2026-04-24 08:57 | 31.64724 | 35.43413 | 680 ft | 108 kts | 11° |
| 2026-04-24 08:57 | 31.65466 | 35.43542 | 805 ft | 107 kts | 9° |
| 2026-04-24 08:57 | 31.66184 | 35.43655 | 853 ft | 101 kts | 11° |
| 2026-04-24 08:58 | 31.66912 | 35.43785 | 765 ft | 110 kts | 9° |
| 2026-04-24 08:58 | 31.67622 | 35.43884 | 786 ft | 100 kts | 8° |
| 2026-04-24 08:58 | 31.68307 | 35.44013 | 743 ft | 100 kts | 14° |
| 2026-04-24 08:58 | 31.68995 | 35.44163 | 808 ft | 101 kts | 13° |
| 2026-04-24 08:59 | 31.69692 | 35.44246 | 875 ft | 102 kts | 6° |
| 2026-04-24 08:59 | 31.70434 | 35.44360 | 738 ft | 109 kts | 9° |
| 2026-04-24 08:59 | 31.71145 | 35.44600 | 730 ft | 107 kts | 24° |
| 2026-04-24 08:59 | 31.71852 | 35.44874 | 791 ft | 104 kts | 21° |
| 2026-04-24 09:00 | 31.72574 | 35.45038 | 864 ft | 103 kts | 7° |
| 2026-04-24 09:00 | 31.73313 | 35.45109 | 835 ft | 114 kts | 6° |
| 2026-04-24 09:00 | 31.74146 | 35.45183 | 837 ft | 122 kts | 7° |
| 2026-04-24 09:00 | 31.74997 | 35.45271 | 745 ft | 123 kts | 5° |
| 2026-04-24 09:01 | 31.75560 | 35.45302 | 774 ft | 116 kts | 2° |
| 2026-04-24 09:01 | 31.76365 | 35.45320 | 821 ft | 115 kts | 2° |
| 2026-04-24 09:01 | 31.77135 | 35.45332 | 890 ft | 119 kts | 1° |
| 2026-04-24 09:01 | 31.77984 | 35.45330 | 911 ft | 121 kts | 2° |
| 2026-04-24 09:02 | 31.78826 | 35.45352 | 918 ft | 122 kts | 352° |
| 2026-04-24 09:02 | 31.79636 | 35.45017 | 934 ft | 123 kts | 340° |
| 2026-04-24 09:02 | 31.80423 | 35.44607 | 880 ft | 127 kts | 336° |
| 2026-04-24 09:02 | 31.81213 | 35.44154 | 910 ft | 125 kts | 334° |
| 2026-04-24 09:03 | 31.81886 | 35.43538 | 936 ft | 126 kts | 310° |
| 2026-04-24 09:03 | 31.82157 | 35.42611 | 1011 ft | 122 kts | 262° |
| 2026-04-24 09:03 | 31.81819 | 35.41777 | 1282 ft | 108 kts | 235° |
| 2026-04-24 09:03 | 31.81406 | 35.41040 | 1391 ft | 114 kts | 244° |
| 2026-04-24 09:04 | 31.81034 | 35.40202 | 1509 ft | 118 kts | 242° |
| 2026-04-24 09:04 | 31.80641 | 35.39327 | 1497 ft | 125 kts | 245° |
| 2026-04-24 09:04 | 31.80265 | 35.38380 | 1483 ft | 125 kts | 245° |
| 2026-04-24 09:04 | 31.79891 | 35.37488 | 1698 ft | 117 kts | 245° |
| 2026-04-24 09:05 | 31.79543 | 35.36686 | 2003 ft | 106 kts | 245° |
| 2026-04-24 09:05 | 31.79313 | 35.36175 | 2171 ft | 103 kts | 245° |
| 2026-04-24 09:05 | 31.78842 | 35.35115 | 2306 ft | 118 kts | 245° |
| 2026-04-24 09:05 | 31.78542 | 35.34257 | 2434 ft | 107 kts | 270° |
| 2026-04-24 09:06 | 31.78777 | 35.33470 | 2596 ft | 106 kts | 301° |
| 2026-04-24 09:06 | 31.78977 | 35.32579 | 2703 ft | 114 kts | 279° |
| 2026-04-24 09:06 | 31.78837 | 35.31656 | 2767 ft | 122 kts | 243° |
| 2026-04-24 09:06 | 31.78548 | 35.30730 | 2890 ft | 120 kts | 254° |
| 2026-04-24 09:07 | 31.78303 | 35.29824 | 3088 ft | 113 kts | 257° |
| 2026-04-24 09:07 | 31.77773 | 35.29085 | 2976 ft | 134 kts | 202° |
| 2026-04-24 09:07 | 31.76388 | 35.27908 | 3268 ft | 124 kts | 223° |
| 2026-04-24 09:08 | 31.75766 | 35.27217 | 3426 ft | 116 kts | 226° |
| 2026-04-24 09:08 | 31.75182 | 35.26553 | 3642 ft | 116 kts | 225° |
| 2026-04-24 09:08 | 31.74598 | 35.25889 | 3811 ft | 119 kts | 225° |
| 2026-04-24 09:08 | 31.74020 | 35.25184 | 3871 ft | 124 kts | 234° |
| 2026-04-24 09:09 | 31.73495 | 35.24410 | 3861 ft | 118 kts | 234° |
| 2026-04-24 09:09 | 31.73005 | 35.23619 | 3917 ft | 120 kts | 241° |
| 2026-04-24 09:09 | 31.72967 | 35.22737 | 4096 ft | 113 kts | 277° |
| 2026-04-24 09:09 | 31.72996 | 35.21787 | 4078 ft | 119 kts | 273° |
| 2026-04-24 09:10 | 31.73035 | 35.21147 | 4145 ft | 117 kts | 276° |
| 2026-04-24 09:10 | 31.73079 | 35.20615 | 4133 ft | 118 kts | 278° |
| 2026-04-24 09:10 | 31.73143 | 35.19674 | 4002 ft | 124 kts | 280° |
| 2026-04-24 09:10 | 31.73273 | 35.18681 | 4074 ft | 122 kts | 285° |
| 2026-04-24 09:11 | 31.73475 | 35.17744 | 4164 ft | 114 kts | 287° |
| 2026-04-24 09:11 | 31.73656 | 35.16861 | 4172 ft | 113 kts | 290° |
| 2026-04-24 09:11 | 31.73905 | 35.15934 | 4130 ft | 123 kts | 289° |
| 2026-04-24 09:11 | 31.74131 | 35.15031 | 4311 ft | 106 kts | 289° |
| 2026-04-24 09:12 | 31.74312 | 35.14226 | 4597 ft | 101 kts | 288° |
| 2026-04-24 09:12 | 31.74524 | 35.13421 | 4664 ft | 104 kts | 290° |
| 2026-04-24 09:12 | 31.74943 | 35.12769 | 4641 ft | 109 kts | 329° |
| 2026-04-24 09:12 | 31.75635 | 35.12323 | 4361 ft | 122 kts | 336° |
| 2026-04-24 09:13 | 31.76537 | 35.12190 | 3893 ft | 133 kts | 355° |
| 2026-04-24 09:13 | 31.77425 | 35.12004 | 3810 ft | 131 kts | 327° |
| 2026-04-24 09:13 | 31.77902 | 35.11121 | 3554 ft | 125 kts | 291° |
| 2026-04-24 09:13 | 31.78208 | 35.10208 | 3333 ft | 120 kts | 308° |
| 2026-04-24 09:14 | 31.78662 | 35.09468 | 3145 ft | 118 kts | 306° |
| 2026-04-24 09:14 | 31.79107 | 35.08683 | 3023 ft | 114 kts | 308° |
| 2026-04-24 09:14 | 31.79551 | 35.07980 | 3046 ft | 103 kts | 308° |
| 2026-04-24 09:14 | 31.80014 | 35.07259 | 2888 ft | 111 kts | 309° |
| 2026-04-24 09:15 | 31.80501 | 35.06532 | 2800 ft | 110 kts | 311° |
| 2026-04-24 09:15 | 31.80931 | 35.05813 | 2765 ft | 110 kts | 305° |
| 2026-04-24 09:15 | 31.81341 | 35.05043 | 2722 ft | 112 kts | 296° |
| 2026-04-24 09:15 | 31.81570 | 35.04146 | 2604 ft | 119 kts | 286° |
| 2026-04-24 09:16 | 31.81775 | 35.03185 | 2400 ft | 123 kts | 285° |
| 2026-04-24 09:16 | 31.81947 | 35.02218 | 2275 ft | 122 kts | 288° |
| 2026-04-24 09:16 | 31.82265 | 35.01280 | 2056 ft | 125 kts | 296° |
| 2026-04-24 09:16 | 31.82603 | 35.00406 | 2151 ft | 110 kts | 295° |
| 2026-04-24 09:17 | 31.82919 | 34.99607 | 2078 ft | 119 kts | 302° |
| 2026-04-24 09:17 | 31.83433 | 34.98847 | 1676 ft | 105 kts | 333° |
| 2026-04-24 09:17 | 31.84106 | 34.98570 | 1403 ft | 105 kts | 342° |
| 2026-04-24 09:17 | 31.84827 | 34.98337 | 1282 ft | 108 kts | 344° |
| 2026-04-24 09:18 | 31.85541 | 34.98107 | 1287 ft | 108 kts | 345° |
| 2026-04-24 09:18 | 31.86242 | 34.97775 | 1301 ft | 113 kts | 319° |
| 2026-04-24 09:18 | 31.86588 | 34.96926 | 1311 ft | 115 kts | 291° |
| 2026-04-24 09:18 | 31.86896 | 34.96058 | 1193 ft | 115 kts | 299° |
| 2026-04-24 09:19 | 31.87219 | 34.95202 | 1183 ft | 112 kts | 298° |
| 2026-04-24 09:19 | 31.87810 | 34.94667 | 1239 ft | 109 kts | 338° |
| 2026-04-24 09:19 | 31.88544 | 34.94399 | 1269 ft | 110 kts | 344° |
| 2026-04-24 09:19 | 31.89234 | 34.93987 | 1256 ft | 114 kts | 324° |
| 2026-04-24 09:20 | 31.89849 | 34.93394 | 1295 ft | 112 kts | 320° |
| 2026-04-24 09:20 | 31.90059 | 34.92492 | 1182 ft | 123 kts | 273° |
| 2026-04-24 09:20 | 31.90061 | 34.91528 | 1227 ft | 115 kts | 277° |
| 2026-04-24 09:20 | 31.90143 | 34.90613 | 1158 ft | 114 kts | 295° |
| 2026-04-24 09:21 | 31.90474 | 34.89806 | 1094 ft | 115 kts | 301° |
| 2026-04-24 09:21 | 31.90930 | 34.89029 | 1052 ft | 113 kts | 321° |
| 2026-04-24 09:21 | 31.91558 | 34.88490 | 1048 ft | 115 kts | 329° |
| 2026-04-24 09:21 | 31.92202 | 34.88019 | 1217 ft | 101 kts | 328° |
| 2026-04-24 09:22 | 31.92266 | 34.87173 | 948 ft | 137 kts | 239° |
| 2026-04-24 09:22 | 31.91790 | 34.86240 | 1005 ft | 121 kts | 263° |
| 2026-04-24 09:22 | 31.91772 | 34.85258 | 1083 ft | 115 kts | 274° |
| 2026-04-24 09:22 | 31.91902 | 34.84300 | 1081 ft | 119 kts | 289° |
| 2026-04-24 09:23 | 31.92211 | 34.83399 | 1139 ft | 117 kts | 310° |
| 2026-04-24 09:23 | 31.92789 | 34.82733 | 1225 ft | 123 kts | 322° |
| 2026-04-24 09:23 | 31.93443 | 34.82109 | 1364 ft | 118 kts | 322° |
| 2026-04-24 09:23 | 31.94099 | 34.81490 | 1293 ft | 122 kts | 319° |
| 2026-04-24 09:24 | 31.94597 | 34.80679 | 1290 ft | 117 kts | 300° |
| 2026-04-24 09:24 | 31.94939 | 34.79761 | 1138 ft | 125 kts | 287° |
| 2026-04-24 09:24 | 31.95102 | 34.78766 | 935 ft | 121 kts | 291° |
| 2026-04-24 09:24 | 31.95499 | 34.77991 | 809 ft | 104 kts | 308° |
| 2026-04-24 09:25 | 31.95735 | 34.77205 | 561 ft | 104 kts | 266° |
| 2026-04-24 09:25 | 31.95578 | 34.76483 | 467 ft | 73 kts | 303° |
| 2026-04-24 09:25 | 31.96008 | 34.76096 | 449 ft | 91 kts | 334° |
| 2026-04-24 09:25 | 31.96630 | 34.75758 | 489 ft | 105 kts | 336° |
| 2026-04-24 09:26 | 31.97320 | 34.75402 | 508 ft | 108 kts | 330° |
| 2026-04-24 09:26 | 31.97613 | 34.74614 | 484 ft | 113 kts | 272° |
| 2026-04-24 09:26 | 31.97063 | 34.74085 | 590 ft | 116 kts | 195° |
| 2026-04-24 09:26 | 31.96267 | 34.74025 | 490 ft | 109 kts | 178° |
| 2026-04-24 09:27 | 31.95549 | 34.74125 | 504 ft | 99 kts | 172° |
| 2026-04-24 09:27 | 31.95074 | 34.74653 | 543 ft | 92 kts | 103° |
| 2026-04-24 09:27 | 31.95255 | 34.75210 | 463 ft | 73 kts | 28° |
| 2026-04-24 09:27 | 31.95698 | 34.75305 | 287 ft | 59 kts | 3° |
| 2026-04-24 09:28 | 31.96102 | 34.75328 | 180 ft | 61 kts | 0° |
| 2026-04-24 09:28 | 31.96494 | 34.75357 | 71 ft | 47 kts | 0° |
| 2026-04-24 09:28 | 31.96656 | 34.75355 | 69 ft | 6 kts | 355° |
| 2026-04-24 09:28 | 31.96729 | 34.75356 | 65 ft | 8 kts | 358° |
| 2026-04-24 09:29 | 31.96729 | 34.75334 | 67 ft | 6 kts | 180° |
| 2026-04-24 09:29 | 31.96653 | 34.75334 | 68 ft | 14 kts | 179° |
| 2026-04-24 09:29 | 31.96553 | 34.75334 | 67 ft | 10 kts | 175° |
| 2026-04-24 09:29 | 31.96529 | 34.75317 | 69 ft | 5 kts | 278° |
| 2026-04-24 09:30 | 31.96568 | 34.75301 | 66 ft | 10 kts | 356° |
| 2026-04-24 09:30 | 31.96653 | 34.75297 | 63 ft | 15 kts | 355° |
| 2026-04-24 09:30 | 31.96714 | 34.75292 | 62 ft | 0 kts | 291° |
| 2026-04-24 09:30 | 31.96715 | 34.75269 | 62 ft | 0 kts | 270° |
| 2026-04-24 09:31 | 31.96715 | 34.75249 | 62 ft | 0 kts | 270° |